createdAt,value
2023-02-25T00:00:36.889Z,98769.78
2023-02-25T00:03:04.674Z,98774.47
2023-02-25T00:05:33.863Z,98774.75
2023-02-25T00:08:01.709Z,98774.22
2023-02-25T00:10:29.963Z,98775.88
2023-02-25T00:13:12.201Z,98770.50
2023-02-25T00:15:44.899Z,98776.06
2023-02-25T00:18:12.542Z,98782.41
2023-02-25T00:20:42.276Z,98786.91
2023-02-25T00:23:10.226Z,98780.53
2023-02-25T00:25:37.979Z,98777.25
2023-02-25T00:28:06.348Z,98778.03
2023-02-25T00:30:34.216Z,98782.72
2023-02-25T00:33:02.222Z,98788.22
2023-02-25T00:35:30.171Z,98784.28
2023-02-25T00:38:13.889Z,98779.13
2023-02-25T00:40:43.464Z,98782.03
2023-02-25T00:43:11.155Z,98789.59
2023-02-25T00:45:40.323Z,98797.94
2023-02-25T00:48:08.173Z,98796.44
2023-02-25T00:50:39.650Z,98800.25
2023-02-25T00:53:08.702Z,98789.41
2023-02-25T00:55:36.597Z,98799.91
2023-02-25T00:58:04.445Z,98793.72
2023-02-25T01:00:40.486Z,98809.06
2023-02-25T01:03:14.226Z,98809.84
2023-02-25T01:05:42.849Z,98817.16
2023-02-25T01:08:12.063Z,98808.84
2023-02-25T01:10:39.711Z,98814.53
2023-02-25T01:13:07.577Z,98820.38
2023-02-25T01:15:35.426Z,98826.91
2023-02-25T01:18:03.303Z,98822.47
2023-02-25T01:20:31.581Z,98815.63
2023-02-25T01:22:59.245Z,98817.16
2023-02-25T01:25:28.211Z,98818.75
2023-02-25T01:27:56.237Z,98817.09
2023-02-25T01:30:24.664Z,98810.56
2023-02-25T01:32:53.186Z,98807.59
2023-02-25T01:35:20.845Z,98797.16
2023-02-25T01:37:49.864Z,98799.19
2023-02-25T01:40:18.869Z,98796.81
2023-02-25T01:42:48.397Z,98799.13
2023-02-25T01:45:29.708Z,98803.53
2023-02-25T01:48:02.777Z,98805.41
2023-02-25T01:50:36.842Z,98800.88
2023-02-25T01:53:05.732Z,98806.00
2023-02-25T01:55:34.599Z,98812.72
2023-02-25T01:58:03.827Z,98811.94
2023-02-25T02:00:33.658Z,98812.50
2023-02-25T02:03:01.836Z,98819.94
2023-02-25T02:05:43.607Z,98808.94
2023-02-25T02:08:12.222Z,98809.75
2023-02-25T02:10:39.916Z,98809.00
2023-02-25T02:13:09.219Z,98811.03
2023-02-25T02:15:42.717Z,98811.53
2023-02-25T02:18:11.149Z,98807.69
2023-02-25T02:20:52.379Z,98808.50
2023-02-25T02:24:10.014Z,98800.16
2023-02-25T02:27:02.193Z,98818.56
2023-02-25T02:30:05.531Z,98817.75
2023-02-25T02:32:38.764Z,98822.09
2023-02-25T02:35:18.942Z,98820.97
2023-02-25T02:37:57.982Z,98824.13
2023-02-25T02:40:42.026Z,98814.75
2023-02-25T02:43:22.680Z,98813.94
2023-02-25T02:45:57.866Z,98821.03
2023-02-25T02:48:32.265Z,98816.66
2023-02-25T02:51:04.981Z,98817.81
2023-02-25T02:53:37.603Z,98825.50
2023-02-25T02:56:08.674Z,98824.00
2023-02-25T02:58:41.835Z,98826.66
2023-02-25T03:01:16.525Z,98819.69
2023-02-25T03:03:52.329Z,98806.44
2023-02-25T03:06:28.141Z,98837.00
2023-02-25T03:09:01.280Z,98834.41
2023-02-25T03:11:29.019Z,98833.25
2023-02-25T03:13:57.565Z,98834.84
2023-02-25T03:16:30.139Z,98838.88
2023-02-25T03:19:04.394Z,98835.44
2023-02-25T03:21:39.794Z,98834.09
2023-02-25T03:24:28.889Z,98834.41
2023-02-25T03:26:56.725Z,98840.34
2023-02-25T03:29:28.414Z,98829.47
2023-02-25T03:32:03.288Z,98845.78
2023-02-25T03:34:37.645Z,98841.47
2023-02-25T03:37:09.307Z,98841.66
2023-02-25T03:39:40.441Z,98776.81
2023-02-25T03:42:13.629Z,98853.31
2023-02-25T03:44:47.439Z,98841.38
2023-02-25T03:47:18.825Z,98847.66
2023-02-25T03:49:55.534Z,98844.09
2023-02-25T03:52:25.233Z,98842.88
2023-02-25T03:54:58.678Z,98841.59
2023-02-25T03:57:35.639Z,98845.13
2023-02-25T04:00:15.624Z,98848.97
2023-02-25T04:02:44.075Z,98847.28
2023-02-25T04:05:13.982Z,98811.66
2023-02-25T04:07:41.877Z,98859.44
2023-02-25T04:10:12.215Z,98858.72
2023-02-25T04:12:40.353Z,98857.50
2023-02-25T04:15:09.640Z,98863.38
2023-02-25T04:17:37.578Z,98866.47
2023-02-25T04:20:06.386Z,98850.44
2023-02-25T04:22:35.979Z,98872.16
2023-02-25T04:25:03.753Z,98859.69
2023-02-25T04:27:32.439Z,98872.38
2023-02-25T04:30:00.164Z,98871.59
2023-02-25T04:32:28.028Z,98875.09
2023-02-25T04:34:55.755Z,98870.94
2023-02-25T04:37:23.356Z,98881.06
2023-02-25T04:39:52.316Z,98880.97
2023-02-25T04:42:19.931Z,98877.06
2023-02-25T04:44:48.100Z,98881.47
2023-02-25T04:47:15.745Z,98879.66
2023-02-25T04:49:45.556Z,98875.69
2023-02-25T04:52:14.459Z,98880.75
2023-02-25T04:54:42.330Z,98878.75
2023-02-25T04:57:12.129Z,98873.38
2023-02-25T04:59:40.342Z,98878.81
2023-02-25T05:02:08.352Z,98877.19
2023-02-25T05:04:36.198Z,98874.41
2023-02-25T05:07:04.077Z,98879.53
2023-02-25T05:09:32.188Z,98870.06
2023-02-25T05:11:59.887Z,98862.25
2023-02-25T05:14:30.771Z,98869.38
2023-02-25T05:16:59.534Z,98860.66
2023-02-25T05:19:27.195Z,98869.66
2023-02-25T05:21:54.918Z,98866.94
2023-02-25T05:24:23.458Z,98872.78
2023-02-25T05:26:52.275Z,98874.75
2023-02-25T05:29:20.710Z,98866.91
2023-02-25T05:31:51.740Z,98869.63
2023-02-25T05:34:19.586Z,98868.38
2023-02-25T05:36:47.482Z,98870.75
2023-02-25T05:39:15.608Z,98871.50
2023-02-25T05:41:43.574Z,98871.50
2023-02-25T05:44:12.284Z,98868.03
2023-02-25T05:46:39.969Z,98877.47
2023-02-25T05:49:10.226Z,98876.81
2023-02-25T05:51:37.888Z,98883.41
2023-02-25T05:54:05.668Z,98882.84
2023-02-25T05:56:33.338Z,98884.44
2023-02-25T05:59:01.032Z,98880.09
2023-02-25T06:01:29.481Z,98879.19
2023-02-25T06:03:58.782Z,98879.72
2023-02-25T06:06:29.830Z,98871.91
2023-02-25T06:08:57.541Z,98875.84
2023-02-25T06:11:28.536Z,98873.72
2023-02-25T06:13:57.941Z,98877.19
2023-02-25T06:16:31.780Z,98844.50
2023-02-25T06:19:01.205Z,98876.94
2023-02-25T06:21:30.936Z,98883.88
2023-02-25T06:23:58.720Z,98883.28
2023-02-25T06:26:26.579Z,98885.34
2023-02-25T06:28:54.322Z,98889.16
2023-02-25T06:31:24.522Z,98895.28
2023-02-25T06:33:52.540Z,98900.91
2023-02-25T06:36:21.509Z,98902.47
2023-02-25T06:38:50.843Z,98893.56
2023-02-25T06:41:21.338Z,98893.56
2023-02-25T06:43:51.938Z,98906.47
2023-02-25T06:46:23.429Z,98914.84
2023-02-25T06:48:51.540Z,98920.38
2023-02-25T06:51:19.267Z,98907.66
2023-02-25T06:53:47.671Z,98918.13
2023-02-25T06:56:20.102Z,98918.50
2023-02-25T06:58:48.035Z,98927.50
2023-02-25T07:01:17.475Z,98933.13
2023-02-25T07:03:45.416Z,98932.28
2023-02-25T07:06:15.697Z,98933.91
2023-02-25T07:08:43.352Z,98938.28
2023-02-25T07:11:15.048Z,98924.94
2023-02-25T07:13:44.636Z,98939.00
2023-02-25T07:16:13.052Z,98945.00
2023-02-25T07:18:41.390Z,98920.97
2023-02-25T07:21:09.413Z,98939.53
2023-02-25T07:23:37.042Z,98948.50
2023-02-25T07:26:05.253Z,98950.03
2023-02-25T07:28:32.993Z,98940.59
2023-02-25T07:31:02.691Z,98947.13
2023-02-25T07:33:30.867Z,98952.63
2023-02-25T07:35:59.038Z,98955.69
2023-02-25T07:38:26.685Z,98954.19
2023-02-25T07:40:54.352Z,98942.34
2023-02-25T07:43:22.010Z,98950.31
2023-02-25T07:45:50.213Z,98927.31
2023-02-25T07:48:19.294Z,98956.94
2023-02-25T07:50:46.954Z,98961.63
2023-02-25T07:53:14.590Z,98967.84
2023-02-25T07:55:43.549Z,98961.94
2023-02-25T07:58:11.369Z,98967.13
2023-02-25T08:00:39.456Z,98959.94
2023-02-25T08:03:07.060Z,98956.69
2023-02-25T08:05:36.739Z,98960.78
2023-02-25T08:08:04.890Z,98960.50
2023-02-25T08:10:32.765Z,98959.66
2023-02-25T08:13:00.422Z,98969.16
2023-02-25T08:15:28.068Z,98962.66
2023-02-25T08:17:55.792Z,98961.97
2023-02-25T08:20:24.216Z,98968.38
2023-02-25T08:22:56.835Z,98964.34
2023-02-25T08:25:24.432Z,98971.13
2023-02-25T08:27:53.026Z,98960.34
2023-02-25T08:30:21.826Z,98969.56
2023-02-25T08:32:49.598Z,98965.59
2023-02-25T08:35:17.425Z,98958.41
2023-02-25T08:37:45.822Z,98965.34
2023-02-25T08:40:14.893Z,98970.38
2023-02-25T08:42:42.557Z,98959.03
2023-02-25T08:45:11.062Z,98961.41
2023-02-25T08:47:39.353Z,98963.41
2023-02-25T08:50:08.198Z,98955.78
2023-02-25T08:52:35.879Z,98970.06
2023-02-25T08:55:04.465Z,98970.81
2023-02-25T08:57:33.995Z,98966.78
2023-02-25T09:00:01.676Z,98969.81
2023-02-25T09:02:29.298Z,98962.72
2023-02-25T09:04:57.588Z,98969.81
2023-02-25T09:07:25.242Z,98967.19
2023-02-25T09:09:52.862Z,98962.66
2023-02-25T09:12:23.563Z,98966.78
2023-02-25T09:14:53.585Z,98973.31
2023-02-25T09:17:21.286Z,98906.06
2023-02-25T09:19:49.041Z,98974.00
2023-02-25T09:22:16.711Z,98968.63
2023-02-25T09:24:44.342Z,98976.88
2023-02-25T09:27:12.268Z,98936.97
2023-02-25T09:29:41.353Z,98981.13
2023-02-25T09:32:21.828Z,98982.88
2023-02-25T09:34:50.422Z,98974.97
2023-02-25T09:37:19.618Z,98982.00
2023-02-25T09:39:47.583Z,98969.97
2023-02-25T09:42:19.581Z,98975.31
2023-02-25T09:44:50.302Z,98981.16
2023-02-25T09:47:23.576Z,98978.69
2023-02-25T09:49:56.918Z,98975.66
2023-02-25T09:52:29.379Z,98969.09
2023-02-25T09:55:00.750Z,98967.53
2023-02-25T09:57:30.340Z,98973.50
2023-02-25T09:59:58.173Z,98972.09
2023-02-25T10:02:39.302Z,98932.47
2023-02-25T10:05:19.136Z,98965.19
2023-02-25T10:07:57.749Z,98959.44
2023-02-25T10:10:31.366Z,98963.16
2023-02-25T10:13:09.003Z,98964.09
2023-02-25T10:15:52.944Z,98965.09
2023-02-25T10:18:38.975Z,98965.78
2023-02-25T10:21:16.666Z,98953.09
2023-02-25T10:23:59.238Z,98959.00
2023-02-25T10:26:32.531Z,98961.81
2023-02-25T10:29:06.543Z,98953.31
2023-02-25T10:31:34.541Z,98954.97
2023-02-25T10:34:21.898Z,98959.94
2023-02-25T10:36:55.395Z,98959.16
2023-02-25T10:39:23.148Z,98957.69
2023-02-25T10:41:51.598Z,98959.03
2023-02-25T10:44:19.329Z,98963.63
2023-02-25T10:46:52.180Z,98964.50
2023-02-25T10:49:25.373Z,98957.34
2023-02-25T10:52:03.126Z,98951.47
2023-02-25T10:54:32.606Z,98954.25
2023-02-25T10:57:02.296Z,98958.84
2023-02-25T10:59:38.447Z,98954.25
2023-02-25T11:02:23.088Z,98952.50
2023-02-25T11:04:53.227Z,98950.56
2023-02-25T11:07:31.335Z,98950.63
2023-02-25T11:10:15.349Z,98945.75
2023-02-25T11:12:45.259Z,98943.66
2023-02-25T11:15:43.106Z,98953.84
2023-02-25T11:18:20.673Z,98959.88
2023-02-25T11:20:54.011Z,98963.38
2023-02-25T11:23:25.642Z,98959.22
2023-02-25T11:25:54.201Z,98962.53
2023-02-25T11:28:30.144Z,98965.78
2023-02-25T11:31:07.061Z,98964.28
2023-02-25T11:33:37.460Z,98961.19
2023-02-25T11:36:07.747Z,98956.50
2023-02-25T11:38:37.905Z,98962.34
2023-02-25T11:41:17.280Z,98924.41
2023-02-25T11:43:45.381Z,98958.97
2023-02-25T11:46:19.539Z,98942.50
2023-02-25T11:48:50.041Z,98940.09
2023-02-25T11:51:25.419Z,98942.91
2023-02-25T11:54:05.434Z,98942.47
2023-02-25T11:56:36.625Z,98941.53
2023-02-25T11:59:23.428Z,98941.88
2023-02-25T12:02:21.618Z,98937.22
2023-02-25T12:05:29.696Z,98936.19
2023-02-25T12:08:14.217Z,98929.69
2023-02-25T12:11:12.467Z,98931.66
2023-02-25T12:14:13.936Z,98919.56
2023-02-25T12:17:07.043Z,98923.84
2023-02-25T12:20:14.426Z,98912.88
2023-02-25T12:23:15.645Z,98917.31
2023-02-25T12:25:51.522Z,98914.56
2023-02-25T12:28:45.418Z,98919.97
2023-02-25T12:31:47.311Z,98908.25
2023-02-25T12:34:36.515Z,98902.00
2023-02-25T12:37:18.323Z,98895.72
2023-02-25T12:40:06.466Z,98903.84
2023-02-25T12:42:49.525Z,98892.47
2023-02-25T12:45:37.015Z,98903.78
2023-02-25T12:48:38.906Z,98904.13
2023-02-25T12:51:25.023Z,98908.47
2023-02-25T12:53:59.137Z,98909.66
2023-02-25T12:56:42.692Z,98908.91
2023-02-25T12:59:33.640Z,98904.97
2023-02-25T13:02:20.184Z,98902.66
2023-02-25T13:05:24.071Z,98861.81
2023-02-25T13:08:24.711Z,98904.97
2023-02-25T13:11:01.226Z,98905.81
2023-02-25T13:13:54.402Z,98896.75
2023-02-25T13:16:36.370Z,98900.94
2023-02-25T13:19:30.062Z,98900.47
2023-02-25T13:22:20.407Z,98919.59
2023-02-25T13:24:55.701Z,98941.13
2023-02-25T13:27:49.549Z,98949.16
2023-02-25T13:30:34.169Z,98947.91
2023-02-25T13:33:18.996Z,98938.19
2023-02-25T13:35:55.491Z,98933.66
2023-02-25T13:38:40.083Z,98934.78
2023-02-25T13:41:27.538Z,98930.44
2023-02-25T13:44:14.687Z,98927.16
2023-02-25T13:47:08.423Z,98924.94
2023-02-25T13:49:57.943Z,98924.06
2023-02-25T13:52:32.112Z,98922.72
2023-02-25T13:55:24.848Z,98925.91
2023-02-25T13:58:16.818Z,98925.00
2023-02-25T14:01:15.137Z,98918.81
2023-02-25T14:04:03.563Z,98921.44
2023-02-25T14:06:51.519Z,98915.63
2023-02-25T14:09:35.103Z,98922.91
2023-02-25T14:12:13.141Z,98925.78
2023-02-25T14:15:08.310Z,98913.53
2023-02-25T14:18:01.740Z,98924.16
2023-02-25T14:20:49.706Z,98928.38
2023-02-25T14:23:26.679Z,98927.84
2023-02-25T14:26:27.950Z,98928.53
2023-02-25T14:29:11.232Z,98929.78
2023-02-25T14:31:51.617Z,98930.28
2023-02-25T14:34:39.872Z,98937.03
2023-02-25T14:37:30.546Z,98926.00
2023-02-25T14:40:18.876Z,98927.56
2023-02-25T14:43:06.237Z,98941.63
2023-02-25T14:45:37.890Z,98928.16
2023-02-25T14:48:11.866Z,98932.84
2023-02-25T14:50:46.319Z,98929.97
2023-02-25T14:54:00.188Z,98945.66
2023-02-25T14:56:48.679Z,98944.94
2023-02-25T14:59:47.441Z,98951.53
2023-02-25T15:02:45.209Z,98948.69
2023-02-25T15:05:32.413Z,98950.75
2023-02-25T15:08:23.058Z,98951.59
2023-02-25T15:11:17.480Z,98952.72
2023-02-25T15:14:24.255Z,98962.81
2023-02-25T15:17:24.797Z,98958.25
2023-02-25T15:20:14.928Z,98957.66
2023-02-25T15:22:56.470Z,98961.09
2023-02-25T15:25:43.814Z,98966.88
2023-02-25T15:28:39.477Z,98969.50
2023-02-25T15:31:38.758Z,98975.88
2023-02-25T15:34:33.996Z,98986.09
2023-02-25T15:37:31.035Z,98986.31
2023-02-25T15:40:00.224Z,99002.34
2023-02-25T15:42:46.045Z,99003.63
2023-02-25T15:45:41.732Z,99048.34
2023-02-25T15:48:30.703Z,99068.88
2023-02-25T15:51:00.041Z,99072.22
2023-02-25T15:53:48.252Z,99071.47
2023-02-25T15:56:30.753Z,99075.59
2023-02-25T15:58:59.956Z,99094.72
2023-02-25T16:01:42.957Z,99092.34
2023-02-25T16:04:46.153Z,99088.69
2023-02-25T16:07:17.226Z,99079.03
2023-02-25T16:09:51.574Z,99042.28
2023-02-25T16:12:20.387Z,99077.28
2023-02-25T16:14:48.324Z,99071.84
2023-02-25T16:17:20.977Z,99079.22
2023-02-25T16:19:52.863Z,99090.63
2023-02-25T16:22:23.382Z,99088.81
2023-02-25T16:24:52.926Z,99010.50
2023-02-25T16:27:42.560Z,99087.69
2023-02-25T16:30:17.038Z,99094.91
2023-02-25T16:32:59.250Z,99095.84
2023-02-25T16:35:33.384Z,99101.16
2023-02-25T16:38:08.211Z,99106.88
2023-02-25T16:40:38.974Z,99072.88
2023-02-25T16:43:12.684Z,99115.81
2023-02-25T16:45:44.649Z,99116.50
2023-02-25T16:48:19.732Z,99110.19
2023-02-25T16:50:50.891Z,99117.97
2023-02-25T16:53:22.482Z,99121.47
2023-02-25T16:55:51.367Z,99127.34
2023-02-25T16:58:24.522Z,99120.47
2023-02-25T17:00:54.338Z,99132.78
2023-02-25T17:03:25.188Z,99136.75
2023-02-25T17:06:03.430Z,99150.63
2023-02-25T17:08:31.158Z,99152.09
2023-02-25T17:11:00.702Z,99158.28
2023-02-25T17:13:32.543Z,99162.34
2023-02-25T17:16:03.725Z,99173.84
2023-02-25T17:18:35.567Z,99165.00
2023-02-25T17:21:07.507Z,99166.00
2023-02-25T17:23:39.769Z,99170.63
2023-02-25T17:26:09.727Z,99167.88
2023-02-25T17:28:37.707Z,99173.22
2023-02-25T17:31:10.336Z,99173.22
2023-02-25T17:33:49.152Z,99187.25
2023-02-25T17:36:20.379Z,99190.06
2023-02-25T17:38:52.247Z,99198.34
2023-02-25T17:41:22.121Z,99200.53
2023-02-25T17:43:50.203Z,99203.47
2023-02-25T17:46:26.683Z,99208.84
2023-02-25T17:48:58.276Z,99212.28
2023-02-25T17:51:33.531Z,99224.84
2023-02-25T17:54:06.132Z,99218.63
2023-02-25T17:56:35.640Z,99212.88
2023-02-25T17:59:06.646Z,99217.94
2023-02-25T18:01:47.333Z,99230.78
2023-02-25T18:04:25.921Z,99231.00
2023-02-25T18:06:55.357Z,99231.66
2023-02-25T18:09:44.187Z,99242.00
2023-02-25T18:12:23.037Z,99251.50
2023-02-25T18:14:55.317Z,99245.88
2023-02-25T18:17:28.112Z,99253.44
2023-02-25T18:19:59.808Z,99259.97
2023-02-25T18:22:32.690Z,99262.28
2023-02-25T18:25:02.690Z,99261.59
2023-02-25T18:27:32.781Z,99260.25
2023-02-25T18:30:18.062Z,99274.66
2023-02-25T18:32:46.057Z,99269.34
2023-02-25T18:35:16.080Z,99269.56
2023-02-25T18:37:45.539Z,99270.88
2023-02-25T18:40:17.775Z,99240.69
2023-02-25T18:42:45.435Z,99282.72
2023-02-25T18:45:15.600Z,99292.22
2023-02-25T18:47:43.303Z,99293.63
2023-02-25T18:50:12.882Z,99299.03
2023-02-25T18:52:42.924Z,99305.63
2023-02-25T18:55:16.816Z,99287.59
2023-02-25T18:57:44.528Z,99310.41
2023-02-25T19:00:13.553Z,99318.56
2023-02-25T19:02:48.111Z,99312.28
2023-02-25T19:05:16.980Z,99326.22
2023-02-25T19:07:46.594Z,99332.16
2023-02-25T19:10:17.176Z,99333.47
2023-02-25T19:12:48.455Z,99331.00
2023-02-25T19:15:19.504Z,99336.78
2023-02-25T19:17:47.885Z,99336.53
2023-02-25T19:20:17.068Z,99341.50
2023-02-25T19:22:47.635Z,99334.03
2023-02-25T19:25:20.272Z,99340.94
2023-02-25T19:27:48.034Z,99354.88
2023-02-25T19:30:17.699Z,99364.75
2023-02-25T19:32:45.389Z,99357.13
2023-02-25T19:35:13.385Z,99359.19
2023-02-25T19:37:42.549Z,99358.41
2023-02-25T19:40:14.528Z,99363.00
2023-02-25T19:42:44.433Z,99362.88
2023-02-25T19:45:16.944Z,99374.19
2023-02-25T19:47:44.607Z,99383.13
2023-02-25T19:50:12.954Z,99390.09
2023-02-25T19:52:40.844Z,99388.03
2023-02-25T19:55:11.266Z,99392.97
2023-02-25T19:57:41.504Z,99405.38
2023-02-25T20:00:11.590Z,99402.19
2023-02-25T20:02:43.321Z,99388.81
2023-02-25T20:05:11.667Z,99410.75
2023-02-25T20:07:40.047Z,99410.44
2023-02-25T20:10:10.927Z,99427.66
2023-02-25T20:12:40.354Z,99426.19
2023-02-25T20:15:09.606Z,99423.31
2023-02-25T20:17:37.516Z,99404.28
2023-02-25T20:20:06.993Z,99424.63
2023-02-25T20:22:35.011Z,99423.66
2023-02-25T20:25:03.014Z,99431.91
2023-02-25T20:27:30.705Z,99434.81
2023-02-25T20:29:59.676Z,99435.09
2023-02-25T20:32:27.347Z,99439.25
2023-02-25T20:34:55.394Z,99430.66
2023-02-25T20:37:25.617Z,99435.75
2023-02-25T20:39:55.399Z,99441.66
2023-02-25T20:42:24.984Z,99439.56
2023-02-25T20:44:53.421Z,99441.31
2023-02-25T20:47:24.567Z,99444.03
2023-02-25T20:49:53.065Z,99444.19
2023-02-25T20:52:21.419Z,99442.28
2023-02-25T20:54:49.787Z,99456.56
2023-02-25T20:57:20.027Z,99457.22
2023-02-25T20:59:48.228Z,99464.22
2023-02-25T21:02:16.585Z,99464.84
2023-02-25T21:04:46.575Z,99459.28
2023-02-25T21:07:14.842Z,99464.19
2023-02-25T21:09:42.545Z,99468.34
2023-02-25T21:12:11.101Z,99468.19
2023-02-25T21:14:38.768Z,99469.91
2023-02-25T21:17:09.299Z,99472.13
2023-02-25T21:19:38.442Z,99475.81
2023-02-25T21:22:07.862Z,99486.13
2023-02-25T21:24:36.698Z,99497.75
2023-02-25T21:27:04.970Z,99489.97
2023-02-25T21:29:33.202Z,99487.25
2023-02-25T21:32:01.053Z,99483.28
2023-02-25T21:34:28.924Z,99480.09
2023-02-25T21:36:58.561Z,99482.81
2023-02-25T21:39:27.954Z,99483.41
2023-02-25T21:41:55.714Z,99474.69
2023-02-25T21:44:23.451Z,99481.84
2023-02-25T21:46:51.048Z,99492.16
2023-02-25T21:49:18.929Z,99486.13
2023-02-25T21:51:46.609Z,99485.97
2023-02-25T21:54:15.334Z,99451.63
2023-02-25T21:56:44.330Z,99472.63
2023-02-25T21:59:12.331Z,99484.53
2023-02-25T22:01:42.184Z,99493.75
2023-02-25T22:04:11.097Z,99502.13
2023-02-25T22:06:39.190Z,99494.84
2023-02-25T22:09:07.309Z,99496.25
2023-02-25T22:11:36.795Z,99513.91
2023-02-25T22:14:08.194Z,99507.69
2023-02-25T22:16:37.663Z,99513.88
2023-02-25T22:19:05.431Z,99511.50
2023-02-25T22:21:34.335Z,99503.84
2023-02-25T22:24:04.156Z,99509.72
2023-02-25T22:26:34.178Z,99505.25
2023-02-25T22:29:03.197Z,99507.31
2023-02-25T22:31:34.099Z,99505.25
2023-02-25T22:34:03.081Z,99507.00
2023-02-25T22:36:30.857Z,99465.19
2023-02-25T22:38:58.661Z,99514.50
2023-02-25T22:41:28.259Z,99509.72
2023-02-25T22:43:56.256Z,99518.94
2023-02-25T22:46:26.055Z,99515.00
2023-02-25T22:48:55.833Z,99515.28
2023-02-25T22:51:25.183Z,99520.66
2023-02-25T22:53:53.718Z,99524.31
2023-02-25T22:56:21.923Z,99517.13
2023-02-25T22:58:50.027Z,99515.84
2023-02-25T23:01:19.698Z,99516.34
2023-02-25T23:03:48.346Z,99524.25
2023-02-25T23:06:20.200Z,99514.88
2023-02-25T23:08:47.971Z,99513.91
2023-02-25T23:11:18.397Z,99524.06
2023-02-25T23:13:48.124Z,99521.22
2023-02-25T23:16:17.132Z,99529.94
2023-02-25T23:18:45.487Z,99531.66
2023-02-25T23:21:18.939Z,99538.75
2023-02-25T23:23:48.837Z,99536.72
2023-02-25T23:26:18.790Z,99541.31
2023-02-25T23:28:47.506Z,99541.31
2023-02-25T23:31:21.668Z,99544.56
2023-02-25T23:33:49.426Z,99540.59
2023-02-25T23:36:17.276Z,99545.03
2023-02-25T23:38:45.497Z,99537.22
2023-02-25T23:41:14.494Z,99534.66
2023-02-25T23:43:42.181Z,99540.75
2023-02-25T23:46:10.194Z,99544.13
2023-02-25T23:48:38.015Z,99542.09
2023-02-25T23:51:06.486Z,99540.38
2023-02-25T23:53:34.910Z,99534.97
2023-02-25T23:56:06.238Z,99541.59
2023-02-25T23:58:35.633Z,99543.44
